Flight Track Log - Related Links

Times and Time Zones

All times are in EDT time to prevent confusion due to time zone crossing. See the SLI2121 flight status page for this flight to view local times or setup timezone preferences in your user account.

Time Position Orientation Groundspeed Altitude Reporting Facility
EDT Latitude Longitude Course Direction KTS MPH feet Rate Location/Type
Wed 03:01:00 PM 24.4420 -107.1449 137° Southeast  Level Estimated
Wed 03:02:00 PM 24.3613 -107.0627 137° Southeast  Level Estimated
Wed 03:03:00 PM 24.2805 -106.9806 137° Southeast  Level Estimated
Wed 03:04:00 PM 24.1997 -106.8986 137° Southeast  Level Estimated
Wed 03:05:00 PM 24.1188 -106.8167 137° Southeast  Level Estimated
Wed 03:06:00 PM 24.0379 -106.7349 137° Southeast  Level Estimated
Wed 03:07:00 PM 23.9569 -106.6533 137° Southeast  Level Estimated
Wed 03:08:00 PM 23.8759 -106.5717 137° Southeast  Level Estimated
Wed 03:09:00 PM 23.7949 -106.4902 137° Southeast  Level Estimated
Wed 03:10:00 PM 23.7138 -106.4088 137° Southeast  Level Estimated
Wed 03:11:00 PM 23.6327 -106.3276 137° Southeast  Level Estimated
Wed 03:12:00 PM 23.5515 -106.2464 137° Southeast  Level Estimated
Wed 03:13:00 PM 23.4703 -106.1653 138° Southeast  Level Estimated
Wed 03:14:00 PM 23.3890 -106.0844 138° Southeast  Level Estimated
Wed 03:15:00 PM 23.3077 -106.0035 138° Southeast  Level Estimated
Wed 03:16:00 PM 23.2264 -105.9227 138° Southeast  Level Estimated
Wed 03:17:00 PM 23.1450 -105.8420 138° Southeast  Level Estimated
Wed 03:18:00 PM 23.0636 -105.7615 138° Southeast  Level Estimated
Wed 03:19:00 PM 22.9821 -105.6810 138° Southeast  Level Estimated
Wed 03:20:00 PM 22.9006 -105.6006 138° Southeast  Level Estimated
Wed 03:21:00 PM 22.8191 -105.5203 138° Southeast  Level Estimated
Wed 03:22:00 PM 22.7375 -105.4401 138° Southeast  Level Estimated
Wed 03:23:00 PM 22.6559 -105.3600 138° Southeast  Level Estimated
Wed 03:24:00 PM 22.5742 -105.2800 138° Southeast  Level Estimated
Wed 03:25:00 PM 22.4925 -105.2001 138° Southeast  Level Estimated
Wed 03:26:00 PM 22.4108 -105.1203 138° Southeast  Level Estimated
Wed 03:27:00 PM 22.3290 -105.0406 138° Southeast  Level Estimated
Wed 03:28:00 PM 22.2472 -104.9610 138° Southeast  Level Estimated
Wed 03:29:00 PM 22.1653 -104.8815 138° Southeast  Level Estimated
Wed 03:30:00 PM 22.0834 -104.8020 138° Southeast  Level Estimated
Wed 03:31:00 PM 22.0015 -104.7227 138° Southeast  Level Estimated
Wed 03:32:00 PM 21.9195 -104.6434 138° Southeast  Level Estimated
Wed 03:33:00 PM 21.8375 -104.5643 138° Southeast  Level Estimated
Wed 03:34:00 PM 21.7555 -104.4852 138° Southeast  Level Estimated
Wed 03:35:00 PM 21.6734 -104.4062 138° Southeast  Level Estimated
Wed 03:36:00 PM 21.5912 -104.3273 138° Southeast  Level Estimated
Wed 03:37:00 PM 21.5091 -104.2486 138° Southeast  Level Estimated
Wed 03:38:00 PM 21.4269 -104.1698 138° Southeast  Level Estimated
Wed 03:39:00 PM 21.3447 -104.0912 138° Southeast  Level Estimated
Wed 03:40:00 PM 21.2624 -104.0127 138° Southeast  Level Estimated
Wed 03:41:00 PM 21.1801 -103.9342 138° Southeast  Level Estimated
Wed 03:42:00 PM 21.0977 -103.8559 138° Southeast  Level Estimated
Wed 03:43:00 PM 21.0154 -103.7776 138° Southeast  Level Estimated
Wed 03:44:00 PM 20.9329 -103.6994 138° Southeast  Level Estimated
Wed 03:45:00 PM 20.8505 -103.6213 138° Southeast  Level Estimated
Wed 03:46:00 PM 20.7680 -103.5433 139° Southeast  Level Estimated
Wed 03:47:00 PM 20.6855 -103.4654 139° Southeast  Level Estimated
Wed 03:48:00 PM 20.6029 -103.3875 139° Southeast  Level Estimated
Wed 03:49:00 PM 20.5218 -103.3112 139° Southeast  Level Estimated
Wed 03:50:00 PM 20.5218 -103.3112 90° East  Level Estimated
Wed 03:51:00 PM 20.5218 -103.3112 90° East  Level Estimated
Wed 03:52:00 PM 20.5218 -103.3112 90° East  Level Estimated
Wed 03:53:00 PM 20.5218 -103.3112 90° East  Level Estimated
Wed 03:54:00 PM 20.5218 -103.3112 90° East  Level Estimated
Wed 03:55:00 PM 20.5218 -103.3112 90° East  Level Estimated
Wed 03:56:00 PM 20.5218 -103.3112 90° East  Level Estimated
Wed 03:57:00 PM 20.5218 -103.3112 90° East  Level Estimated
Wed 03:58:00 PM 20.5218 -103.3112 90° East  Level Estimated
Wed 03:59:00 PM 20.5218 -103.3112 90° East  Level Estimated
Wed 04:00:00 PM 20.5218 -103.3112 90° East  Level Estimated
Wed 04:01:00 PM 20.5218 -103.3112 90° East  Level Estimated

Login

Don't have an account? Register now (free) for customized features, flight alerts, and more!